Terminal Aerodrome Forecast
Issued by NWS Green Bay, WI

Home | Current Version | Previous Version | Graphics & Text | Print | Product List | Glossary On
Versions: 1 2 3 4 5 6 7 8 9 10 11 12 13 14 15 16 17 18 19 20 21 22 23 24 25 26 27 28
114
FTUS43 KGRB 210520
TAFGRB
TAF
KGRB 210520Z 2106/2206 VRB03KT P6SM SCT200
     FM211200 31008G15KT P6SM SCT040
     FM211500 35014G21KT P6SM BKN045
     FM220100 01010KT P6SM SCT035=

USA.gov is the U.S. government's official web portal to all federal, state and local government web resources and services.